Time;durP1;ratioP1;P1;durP2;ratioP2;P2;SDS_P1;SDS_P2;PMS_P1;PMS_P2;Temp;Humidity;BMP_temperature;BMP_pressure;BME280_temperature;BME280_humidity;BME280_pressure;Samples;Min_cycle;Max_cycle;Signal;HPM_P1;HPM_P2
2022/12/21 05:02:39;;;;;;;9.20;6.43;;;9.10;99.90;;;;;;4946586;23;21036;-72
2022/12/21 05:05:07;;;;;;;11.93;6.70;;;9.10;99.90;;;;;;4947557;29;20433;-71
2022/12/21 05:07:33;;;;;;;13.43;7.00;;;9.10;99.90;;;;;;4946310;29;20586;-71
2022/12/21 05:10:00;;;;;;;13.57;6.80;;;9.10;99.90;;;;;;4947200;28;20453;-72
2022/12/21 05:12:27;;;;;;;9.67;6.80;;;9.10;99.90;;;;;;4950042;28;20488;-72
2022/12/21 05:14:54;;;;;;;8.03;6.07;;;9.10;99.90;;;;;;4951569;28;20465;-72
2022/12/21 05:17:20;;;;;;;10.20;6.67;;;9.10;99.90;;;;;;4950486;29;20575;-71
2022/12/21 05:19:48;;;;;;;9.40;6.10;;;9.00;99.90;;;;;;4950974;29;20461;-72
2022/12/21 05:22:16;;;;;;;8.97;6.60;;;9.00;99.90;;;;;;4950292;28;20473;-71
2022/12/21 05:24:44;;;;;;;7.97;6.03;;;9.00;99.90;;;;;;4951147;29;20998;-72
2022/12/21 05:27:11;;;;;;;11.40;6.30;;;9.00;99.90;;;;;;4950580;29;20536;-72
2022/12/21 05:29:37;;;;;;;8.63;6.13;;;9.00;99.90;;;;;;4950788;28;20458;-71
2022/12/21 05:32:05;;;;;;;10.23;6.33;;;9.00;99.90;;;;;;4951242;28;20477;-71
2022/12/21 05:34:31;;;;;;;10.80;6.00;;;9.00;99.90;;;;;;4951081;29;20460;-71
2022/12/21 05:37:00;;;;;;;9.97;7.03;;;9.00;99.90;;;;;;4950056;29;20499;-72
2022/12/21 05:39:26;;;;;;;10.47;6.90;;;9.00;99.90;;;;;;4950680;29;20461;-72
2022/12/21 05:41:54;;;;;;;8.77;5.90;;;9.00;99.90;;;;;;4951089;28;20485;-72
2022/12/21 05:44:20;;;;;;;8.90;5.77;;;8.90;99.90;;;;;;4951184;29;20464;-72
2022/12/21 05:46:47;;;;;;;9.73;6.10;;;9.00;99.90;;;;;;4949882;29;20942;-72
2022/12/21 05:49:14;;;;;;;9.43;6.30;;;9.00;99.90;;;;;;4950470;29;20461;-71
2022/12/21 05:51:41;;;;;;;9.57;6.73;;;9.00;99.90;;;;;;4950631;28;20477;-72
2022/12/21 05:54:09;;;;;;;6.43;5.80;;;9.10;99.90;;;;;;4950340;29;20449;-72
2022/12/21 05:56:36;;;;;;;11.70;6.50;;;9.10;99.90;;;;;;4949761;29;20500;-72
2022/12/21 05:59:03;;;;;;;9.50;6.03;;;9.10;99.90;;;;;;4950508;28;20523;-71
2022/12/21 06:01:30;;;;;;;10.00;6.63;;;9.10;99.90;;;;;;4950425;28;20481;-71
2022/12/21 06:03:57;;;;;;;7.57;6.23;;;9.10;99.90;;;;;;4950642;28;20540;-72
2022/12/21 06:06:24;;;;;;;10.27;5.77;;;9.10;99.90;;;;;;4949542;29;20469;-72
2022/12/21 06:08:51;;;;;;;9.13;5.90;;;9.10;99.90;;;;;;4950548;29;20453;-72
2022/12/21 06:11:20;;;;;;;10.10;5.50;;;9.20;99.90;;;;;;4950460;28;20484;-71
2022/12/21 06:13:48;;;;;;;7.93;5.90;;;9.20;99.90;;;;;;4950293;29;20457;-72
2022/12/21 06:16:17;;;;;;;11.50;6.20;;;9.20;99.90;;;;;;4949672;29;21012;-72
2022/12/21 06:18:44;;;;;;;10.23;6.40;;;9.30;99.90;;;;;;4950239;29;20988;-72
2022/12/21 06:21:13;;;;;;;7.70;5.70;;;9.30;99.90;;;;;;4950125;28;20481;-71
2022/12/21 06:23:40;;;;;;;6.20;5.00;;;9.30;99.90;;;;;;4949560;28;20549;-72
2022/12/21 06:26:09;;;;;;;15.33;6.50;;;9.30;99.90;;;;;;4949281;29;20477;-72
2022/12/21 06:28:37;;;;;;;8.53;5.77;;;9.40;99.90;;;;;;4949996;29;20461;-72
2022/12/21 06:31:06;;;;;;;9.30;5.53;;;9.40;99.90;;;;;;4950152;28;20485;-72
2022/12/21 06:33:32;;;;;;;8.83;6.43;;;9.40;99.90;;;;;;4949831;29;20464;-72
2022/12/21 06:35:59;;;;;;;12.80;5.83;;;9.50;99.90;;;;;;4949276;29;20457;-72
2022/12/21 06:38:27;;;;;;;6.43;5.73;;;9.50;99.90;;;;;;4949702;29;21201;-72
2022/12/21 06:40:55;;;;;;;13.63;6.10;;;9.50;99.90;;;;;;4949966;28;20489;-72
2022/12/21 06:43:21;;;;;;;13.33;6.17;;;9.50;99.90;;;;;;4949563;29;20493;-72
2022/12/21 06:45:55;;;;;;;12.27;6.50;;;9.50;99.90;;;;;;4950774;29;20466;-68
2022/12/21 06:48:22;;;;;;;11.63;5.33;;;9.50;99.90;;;;;;4951643;29;20438;-69
2022/12/21 06:50:53;;;;;;;7.03;6.20;;;9.50;99.90;;;;;;4951803;28;20473;-69
2022/12/21 06:53:20;;;;;;;9.77;5.63;;;9.60;99.90;;;;;;4951393;29;20454;-69
2022/12/21 06:55:47;;;;;;;8.90;5.40;;;9.60;99.90;;;;;;4952106;29;20453;-69
2022/12/21 06:58:14;;;;;;;7.87;5.03;;;9.60;99.90;;;;;;4951291;29;20457;-68
2022/12/21 07:00:41;;;;;;;6.70;5.40;;;9.60;99.90;;;;;;4951513;28;20489;-68
2022/12/21 07:03:09;;;;;;;6.50;5.23;;;9.70;99.90;;;;;;4951428;29;20452;-68
2022/12/21 07:05:36;;;;;;;8.77;5.80;;;9.60;99.90;;;;;;4951676;29;20853;-69
2022/12/21 07:08:03;;;;;;;5.83;4.80;;;9.60;99.90;;;;;;4951208;29;20457;-68
2022/12/21 07:10:30;;;;;;;8.03;5.33;;;9.70;99.90;;;;;;4952539;28;20469;-68
2022/12/21 07:12:57;;;;;;;6.77;5.47;;;9.70;99.90;;;;;;4952401;29;20818;-69
2022/12/21 07:15:23;;;;;;;7.33;5.33;;;9.70;99.90;;;;;;4952074;29;20453;-68
2022/12/21 07:17:50;;;;;;;5.50;4.13;;;9.80;99.90;;;;;;4951780;29;20496;-69
2022/12/21 07:20:18;;;;;;;10.27;6.10;;;9.80;99.90;;;;;;4952066;28;20455;-68
2022/12/21 07:22:45;;;;;;;7.13;5.10;;;9.80;99.90;;;;;;4950670;29;20454;-68
2022/12/21 07:25:12;;;;;;;5.50;4.03;;;9.80;99.90;;;;;;4951321;29;20541;-68
2022/12/21 07:27:39;;;;;;;8.33;5.13;;;9.80;99.90;;;;;;4950812;28;20460;-68
2022/12/21 07:30:07;;;;;;;8.50;5.27;;;9.80;99.90;;;;;;4951488;29;20453;-69
2022/12/21 07:32:34;;;;;;;11.60;5.50;;;9.80;99.90;;;;;;4950652;28;20485;-68
2022/12/21 07:35:01;;;;;;;9.23;5.30;;;9.90;99.90;;;;;;4949974;28;20460;-69
2022/12/21 07:37:29;;;;;;;9.87;5.60;;;9.90;99.90;;;;;;4950213;29;21005;-68
2022/12/21 07:39:56;;;;;;;9.03;6.20;;;9.90;99.90;;;;;;4945051;29;20974;-69
2022/12/21 07:42:22;;;;;;;12.00;6.67;;;9.90;99.90;;;;;;4931782;29;20474;-69
2022/12/21 07:44:49;;;;;;;12.27;8.17;;;9.90;99.90;;;;;;4930921;29;20469;-68
2022/12/21 07:47:16;;;;;;;10.93;6.20;;;9.90;99.90;;;;;;4928731;29;20451;-69
2022/12/21 07:49:43;;;;;;;8.83;5.87;;;9.90;99.90;;;;;;4928099;29;20458;-69
2022/12/21 07:52:10;;;;;;;10.30;6.77;;;9.90;99.90;;;;;;4928828;29;20533;-69
2022/12/21 07:54:38;;;;;;;12.40;7.47;;;9.90;99.90;;;;;;4928301;29;20459;-68
2022/12/21 07:57:05;;;;;;;9.83;7.37;;;9.90;99.90;;;;;;4928799;29;20455;-69
2022/12/21 07:59:32;;;;;;;11.50;8.53;;;9.90;99.90;;;;;;4929778;29;20462;-69
2022/12/21 08:01:59;;;;;;;10.43;6.90;;;9.90;99.90;;;;;;4942942;29;21010;-69
2022/12/21 08:04:25;;;;;;;14.83;6.30;;;9.90;99.90;;;;;;4948657;29;20508;-68
2022/12/21 08:06:52;;;;;;;12.57;6.30;;;9.90;99.90;;;;;;4947816;29;20872;-69
2022/12/21 08:09:19;;;;;;;13.80;7.00;;;9.90;99.90;;;;;;4948072;29;20453;-69
2022/12/21 08:11:47;;;;;;;14.07;8.20;;;9.90;99.90;;;;;;4948354;28;20488;-69
2022/12/21 08:14:14;;;;;;;8.27;5.63;;;9.90;99.90;;;;;;4948385;29;20488;-69
2022/12/21 08:16:41;;;;;;;8.13;6.00;;;9.90;99.90;;;;;;4947754;29;20449;-69
2022/12/21 08:19:08;;;;;;;7.30;5.43;;;10.00;99.90;;;;;;4947989;29;20904;-69
2022/12/21 08:21:34;;;;;;;12.03;4.77;;;10.00;99.90;;;;;;4947893;28;20857;-69
2022/12/21 08:24:01;;;;;;;6.60;4.57;;;9.90;99.90;;;;;;4948155;29;20465;-69
2022/12/21 08:26:28;;;;;;;6.20;4.60;;;10.00;99.90;;;;;;4947451;29;20463;-69
2022/12/21 08:28:57;;;;;;;6.37;5.00;;;9.90;99.90;;;;;;4947800;28;20472;-69
2022/12/21 08:31:24;;;;;;;5.63;4.17;;;10.00;99.90;;;;;;4948234;28;20485;-68
2022/12/21 08:33:50;;;;;;;5.20;4.10;;;10.00;99.90;;;;;;4948098;29;20457;-68
2022/12/21 08:36:20;;;;;;;6.33;4.40;;;10.00;99.90;;;;;;4948146;29;20481;-70
2022/12/21 08:38:47;;;;;;;7.40;4.43;;;10.10;99.90;;;;;;4948375;29;20915;-68
2022/12/21 08:41:14;;;;;;;11.93;4.83;;;10.00;99.90;;;;;;4948114;28;20491;-69
2022/12/21 08:43:41;;;;;;;9.57;4.03;;;10.10;99.90;;;;;;4948264;29;20464;-69
2022/12/21 08:46:11;;;;;;;7.90;4.07;;;10.10;99.90;;;;;;4947537;28;20461;-69
2022/12/21 08:48:38;;;;;;;12.10;3.57;;;10.10;99.90;;;;;;4947683;29;20505;-68
2022/12/21 08:51:07;;;;;;;3.87;3.47;;;10.10;99.90;;;;;;4947173;28;20824;-69
2022/12/21 08:53:34;;;;;;;4.90;4.03;;;10.10;99.90;;;;;;4947880;29;20532;-68
2022/12/21 08:56:01;;;;;;;8.13;3.60;;;10.10;99.90;;;;;;4947320;29;20457;-69
2022/12/21 08:58:28;;;;;;;7.07;3.80;;;10.10;99.90;;;;;;4947811;29;20456;-69
2022/12/21 09:00:55;;;;;;;9.00;3.30;;;10.10;99.90;;;;;;4947773;28;20501;-69
2022/12/21 09:03:26;;;;;;;4.97;3.63;;;10.10;99.90;;;;;;4947728;29;21274;-69
2022/12/21 09:05:55;;;;;;;4.43;3.57;;;10.10;99.90;;;;;;4947311;29;20484;-68
2022/12/21 09:08:21;;;;;;;4.13;3.33;;;10.10;99.90;;;;;;4947439;29;20496;-69
2022/12/21 09:10:48;;;;;;;6.00;4.07;;;10.10;99.90;;;;;;4947794;28;20481;-69
2022/12/21 09:13:15;;;;;;;4.60;3.73;;;10.20;99.90;;;;;;4947953;29;20465;-69
2022/12/21 09:15:43;;;;;;;7.53;3.80;;;10.20;99.90;;;;;;4947820;29;20457;-69
2022/12/21 09:18:10;;;;;;;8.67;3.60;;;10.20;99.90;;;;;;4947594;29;20464;-69
2022/12/21 09:20:39;;;;;;;7.50;3.20;;;10.10;99.90;;;;;;4947824;28;20989;-69
2022/12/21 09:23:06;;;;;;;4.63;3.87;;;10.20;99.90;;;;;;4947821;29;20961;-69
2022/12/21 09:25:33;;;;;;;8.53;4.50;;;10.20;99.90;;;;;;4947899;29;20957;-69
2022/12/21 09:28:01;;;;;;;6.40;4.07;;;10.20;99.90;;;;;;4946888;29;20584;-69
2022/12/21 09:30:27;;;;;;;6.10;4.30;;;10.20;99.90;;;;;;4948064;28;20465;-69
2022/12/21 09:32:54;;;;;;;7.73;4.40;;;10.20;99.90;;;;;;4947748;29;20461;-69
2022/12/21 09:35:21;;;;;;;5.53;4.57;;;10.10;99.90;;;;;;4947594;29;20461;-69
2022/12/21 09:37:49;;;;;;;4.73;3.77;;;10.20;99.90;;;;;;4947382;29;20827;-69
2022/12/21 09:40:18;;;;;;;5.60;3.33;;;10.20;99.90;;;;;;4948142;28;20509;-69
2022/12/21 09:42:57;;;;;;;6.03;4.30;;;10.30;99.90;;;;;;4948137;29;20446;-69
2022/12/21 09:45:30;;;;;;;7.63;4.10;;;10.30;99.90;;;;;;4948054;29;20464;-69
2022/12/21 09:48:02;;;;;;;4.87;3.60;;;10.30;99.90;;;;;;4946648;29;21024;-69
2022/12/21 09:50:36;;;;;;;4.87;4.07;;;10.20;99.90;;;;;;4946643;28;20991;-69
2022/12/21 09:53:12;;;;;;;5.67;3.70;;;10.30;99.90;;;;;;4947310;29;20847;-69
2022/12/21 09:55:46;;;;;;;6.60;4.30;;;10.30;99.90;;;;;;4947218;28;20433;-69
2022/12/21 09:58:18;;;;;;;8.33;4.70;;;10.30;99.90;;;;;;4948940;28;20460;-69
2022/12/21 10:00:48;;;;;;;5.80;4.10;;;10.30;99.90;;;;;;4950332;28;20902;-69
2022/12/21 10:03:43;;;;;;;5.53;3.90;;;10.30;99.90;;;;;;4951156;29;20453;-69
2022/12/21 10:06:24;;;;;;;4.60;3.50;;;10.40;99.90;;;;;;4949597;28;20955;-69
2022/12/21 10:09:11;;;;;;;7.83;4.10;;;10.30;99.90;;;;;;4950536;29;20487;-69
2022/12/21 10:11:52;;;;;;;4.23;3.50;;;10.30;99.90;;;;;;4950647;28;20465;-69
2022/12/21 10:14:29;;;;;;;7.27;3.70;;;10.30;99.90;;;;;;4950401;29;20449;-69
2022/12/21 10:17:03;;;;;;;5.43;4.20;;;10.30;99.90;;;;;;4949998;29;20511;-69
2022/12/21 10:19:36;;;;;;;6.13;4.03;;;10.30;99.90;;;;;;4950627;29;20460;-69
2022/12/21 10:22:10;;;;;;;5.10;4.60;;;10.30;99.90;;;;;;4950477;28;20485;-69
2022/12/21 10:24:46;;;;;;;6.23;4.00;;;10.40;99.90;;;;;;4950194;29;20452;-69
2022/12/21 10:27:19;;;;;;;5.70;4.43;;;10.40;99.90;;;;;;4949840;29;20452;-69
2022/12/21 10:29:49;;;;;;;6.20;4.13;;;10.30;99.90;;;;;;4950512;29;20449;-69
2022/12/21 10:32:16;;;;;;;7.20;4.50;;;10.40;99.90;;;;;;4950352;28;20483;-69
2022/12/21 10:34:46;;;;;;;6.83;4.50;;;10.40;99.90;;;;;;4950357;29;20457;-69
2022/12/21 10:37:16;;;;;;;5.47;4.30;;;10.40;99.90;;;;;;4949798;29;20469;-69
2022/12/21 10:39:45;;;;;;;5.57;4.40;;;10.40;99.90;;;;;;4950311;29;20954;-69
2022/12/21 10:42:20;;;;;;;4.53;3.93;;;10.50;99.90;;;;;;4950640;28;20496;-69
2022/12/21 10:44:49;;;;;;;4.60;3.97;;;10.50;99.90;;;;;;4950680;29;20515;-69
2022/12/21 10:47:18;;;;;;;14.17;4.53;;;10.50;99.90;;;;;;4949561;29;20977;-69
2022/12/21 10:49:52;;;;;;;5.90;4.23;;;10.50;99.90;;;;;;4950268;29;20456;-69
2022/12/21 10:52:37;;;;;;;7.47;4.30;;;10.60;99.90;;;;;;4950226;28;20483;-69
2022/12/21 10:55:24;;;;;;;6.43;4.50;;;10.60;99.90;;;;;;4948340;29;20946;-69
2022/12/21 10:57:54;;;;;;;8.03;4.33;;;10.60;99.90;;;;;;4948790;28;20444;-69
2022/12/21 11:00:23;;;;;;;6.00;3.50;;;10.60;99.90;;;;;;4948957;28;20459;-69
2022/12/21 11:02:52;;;;;;;10.97;4.47;;;10.60;99.90;;;;;;4949389;29;20460;-69
2022/12/21 11:05:28;;;;;;;6.80;4.93;;;10.60;99.90;;;;;;4949264;29;20821;-70
2022/12/21 11:08:10;;;;;;;4.90;3.90;;;10.50;99.90;;;;;;4948124;28;20500;-69
2022/12/21 11:10:38;;;;;;;7.87;4.10;;;10.50;99.90;;;;;;4948669;28;21038;-69
2022/12/21 11:13:06;;;;;;;6.30;3.93;;;10.50;99.90;;;;;;4949299;28;20465;-69
2022/12/21 11:15:34;;;;;;;4.30;3.70;;;10.50;99.90;;;;;;4948639;29;20454;-69
2022/12/21 11:18:01;;;;;;;3.77;3.40;;;10.50;99.90;;;;;;4948004;29;20457;-69
2022/12/21 11:20:28;;;;;;;9.60;4.10;;;10.50;99.90;;;;;;4948481;28;20458;-69
2022/12/21 11:22:57;;;;;;;4.83;3.80;;;10.50;99.90;;;;;;4948280;29;20464;-69
2022/12/21 11:25:27;;;;;;;3.80;3.50;;;10.50;99.90;;;;;;4948678;29;20456;-69
2022/12/21 11:28:00;;;;;;;5.30;4.27;;;10.60;99.90;;;;;;4948437;29;20504;-69
2022/12/21 11:30:28;;;;;;;7.33;4.37;;;10.70;99.90;;;;;;4948796;28;21004;-69
2022/12/21 11:32:57;;;;;;;9.33;4.53;;;10.70;99.90;;;;;;4948381;29;21110;-69
2022/12/21 11:35:26;;;;;;;6.60;4.60;;;10.80;99.90;;;;;;4947673;29;20464;-69
2022/12/21 11:37:55;;;;;;;6.00;4.90;;;10.90;99.90;;;;;;4947385;28;20842;-69
2022/12/21 11:40:24;;;;;;;9.10;5.10;;;10.80;99.90;;;;;;4949326;28;20468;-69
2022/12/21 11:42:55;;;;;;;7.47;5.80;;;10.90;99.90;;;;;;4948745;29;20985;-69
2022/12/21 11:45:26;;;;;;;7.20;4.70;;;10.90;99.90;;;;;;4948973;28;20453;-69
2022/12/21 11:48:13;;;;;;;5.33;4.07;;;11.00;99.90;;;;;;4948377;28;20544;-69
2022/12/21 11:50:49;;;;;;;7.53;4.50;;;11.00;99.90;;;;;;4949537;28;20469;-65
2022/12/21 11:53:40;;;;;;;11.20;5.00;;;11.00;99.90;;;;;;4948494;29;20449;-64
2022/12/21 11:56:21;;;;;;;5.73;4.67;;;11.10;99.90;;;;;;4948075;28;20453;-64
2022/12/21 11:59:22;;;;;;;5.17;4.50;;;11.10;99.90;;;;;;4948642;29;20460;-64
2022/12/21 12:02:06;;;;;;;6.27;5.07;;;11.20;99.90;;;;;;4948202;28;20489;-64
2022/12/21 12:04:51;;;;;;;10.13;5.03;;;11.30;99.90;;;;;;4948263;29;20978;-65
2022/12/21 12:07:36;;;;;;;12.43;4.40;;;11.20;99.90;;;;;;4947515;29;20461;-65
2022/12/21 12:10:19;;;;;;;4.40;3.43;;;11.30;99.90;;;;;;4946884;28;20464;-69
2022/12/21 12:12:57;;;;;;;6.00;3.50;;;11.30;99.90;;;;;;4947739;29;20465;-68
2022/12/21 12:15:43;;;;;;;6.50;3.93;;;11.40;99.90;;;;;;4947432;29;21376;-69
2022/12/21 12:18:28;;;;;;;5.30;3.93;;;11.30;99.90;;;;;;4947190;29;20448;-69
2022/12/21 12:21:30;;;;;;;4.77;3.13;;;11.30;99.90;;;;;;4947214;28;21035;-69
2022/12/21 12:24:18;;;;;;;3.33;3.00;;;11.30;99.90;;;;;;4923737;28;20457;-69
2022/12/21 12:26:53;;;;;;;4.40;3.70;;;11.30;99.90;;;;;;4946678;29;20429;-69
2022/12/21 12:29:42;;;;;;;4.80;3.60;;;11.30;99.90;;;;;;4947660;29;20496;-69
2022/12/21 12:32:26;;;;;;;5.33;3.33;;;11.30;99.90;;;;;;4947105;28;20488;-69
2022/12/21 12:35:24;;;;;;;4.00;3.50;;;11.40;99.90;;;;;;4948157;29;20458;-70
2022/12/21 12:38:03;;;;;;;4.77;3.63;;;11.40;99.90;;;;;;4947513;29;20462;-70
2022/12/21 12:40:41;;;;;;;4.87;3.30;;;11.50;99.90;;;;;;4947951;28;20463;-69
2022/12/21 12:43:16;;;;;;;4.33;3.00;;;11.50;99.90;;;;;;4948280;29;20551;-70
2022/12/21 12:45:52;;;;;;;4.70;3.30;;;11.50;99.90;;;;;;4948271;29;20460;-70
2022/12/21 12:48:25;;;;;;;3.53;3.20;;;11.50;99.90;;;;;;4947715;29;21028;-70
2022/12/21 12:50:59;;;;;;;4.60;3.90;;;11.50;99.90;;;;;;4947804;28;21021;-69
2022/12/21 12:53:38;;;;;;;4.00;3.53;;;11.60;99.90;;;;;;4948016;29;20472;-70
2022/12/21 12:56:19;;;;;;;6.50;3.83;;;11.60;99.90;;;;;;4947472;29;20460;-70
2022/12/21 12:58:52;;;;;;;3.33;3.03;;;11.60;99.90;;;;;;4947739;29;20826;-65
2022/12/21 13:01:27;;;;;;;4.90;3.83;;;11.70;99.90;;;;;;4946213;28;20492;-65
2022/12/21 13:04:16;;;;;;;3.13;2.80;;;11.70;99.90;;;;;;4947083;29;20461;-65
2022/12/21 13:06:52;;;;;;;5.97;3.90;;;11.60;99.90;;;;;;4946560;29;20446;-65
2022/12/21 13:09:29;;;;;;;4.93;3.60;;;11.60;99.90;;;;;;4946812;29;20508;-65
2022/12/21 13:12:05;;;;;;;5.40;3.80;;;11.60;99.90;;;;;;4947194;28;20476;-65
2022/12/21 13:14:37;;;;;;;3.70;3.27;;;11.60;99.90;;;;;;4947430;28;20441;-65
2022/12/21 13:17:11;;;;;;;5.70;3.80;;;11.60;99.90;;;;;;4946607;28;21444;-65
2022/12/21 13:19:41;;;;;;;5.70;3.40;;;11.60;99.90;;;;;;4947157;29;20932;-64
2022/12/21 13:22:14;;;;;;;4.87;3.50;;;11.60;99.90;;;;;;4947405;28;20505;-72
2022/12/21 13:24:45;;;;;;;6.37;4.10;;;11.60;99.90;;;;;;4948227;29;20472;-69
2022/12/21 13:27:17;;;;;;;5.00;3.13;;;11.60;99.90;;;;;;4947445;29;20876;-69
2022/12/21 13:29:53;;;;;;;4.00;3.27;;;11.60;99.90;;;;;;4947808;29;20542;-69
2022/12/21 13:32:24;;;;;;;3.90;3.27;;;11.60;99.90;;;;;;4948831;28;20484;-69
2022/12/21 13:34:56;;;;;;;3.40;3.10;;;11.60;99.90;;;;;;4952376;29;20468;-70
2022/12/21 13:37:24;;;;;;;3.80;3.10;;;11.60;99.90;;;;;;4952229;29;20442;-69
2022/12/21 13:40:01;;;;;;;3.90;2.73;;;11.60;99.90;;;;;;4952863;29;20453;-69
2022/12/21 13:42:35;;;;;;;6.10;2.73;;;11.60;99.90;;;;;;4951986;28;20848;-69
2022/12/21 13:45:12;;;;;;;4.87;3.00;;;11.60;99.90;;;;;;4952226;28;20457;-70
2022/12/21 13:47:39;;;;;;;3.17;2.63;;;11.60;99.90;;;;;;4951574;29;20429;-69
2022/12/21 13:50:19;;;;;;;3.23;2.60;;;11.60;99.90;;;;;;4952159;28;21064;-70
2022/12/21 13:52:54;;;;;;;5.40;3.67;;;11.50;99.90;;;;;;4952210;29;20449;-70
2022/12/21 13:55:36;;;;;;;2.53;2.33;;;11.50;99.90;;;;;;4952467;29;20445;-70
2022/12/21 13:58:15;;;;;;;4.47;2.80;;;11.50;99.90;;;;;;4951189;29;20468;-69
2022/12/21 14:00:48;;;;;;;5.73;3.23;;;11.50;99.90;;;;;;4951715;28;20496;-69
2022/12/21 14:03:25;;;;;;;4.00;2.70;;;11.50;99.90;;;;;;4951779;29;20464;-69
2022/12/21 14:06:07;;;;;;;3.20;2.90;;;11.50;99.90;;;;;;4951377;29;20456;-70
2022/12/21 14:08:52;;;;;;;3.37;3.07;;;11.50;99.90;;;;;;4951463;29;20967;-69
2022/12/21 14:11:43;;;;;;;3.47;2.63;;;11.50;99.90;;;;;;4951120;28;20476;-69
2022/12/21 14:14:41;;;;;;;4.70;2.70;;;11.50;99.90;;;;;;4950951;28;20456;-69
2022/12/21 14:17:17;;;;;;;5.60;3.63;;;11.50;99.90;;;;;;4951194;29;20461;-70
2022/12/21 14:19:51;;;;;;;6.70;4.37;;;11.50;99.90;;;;;;4951337;29;20472;-70
2022/12/21 14:22:35;;;;;;;6.50;4.70;;;11.50;99.90;;;;;;4951893;28;20887;-70
2022/12/21 14:25:09;;;;;;;6.10;4.10;;;11.50;99.90;;;;;;4951144;29;21032;-69
2022/12/21 14:27:36;;;;;;;5.10;3.93;;;11.60;99.90;;;;;;4951362;29;20441;-69
2022/12/21 14:30:15;;;;;;;6.90;4.73;;;11.60;99.90;;;;;;4950947;29;20504;-69
2022/12/21 14:32:42;;;;;;;3.53;3.10;;;11.60;99.90;;;;;;4950438;29;20449;-69
2022/12/21 14:35:25;;;;;;;5.13;3.80;;;11.60;99.90;;;;;;4950618;29;20461;-69
2022/12/21 14:38:27;;;;;;;3.43;3.07;;;11.50;99.90;;;;;;4950105;29;20453;-69
2022/12/21 14:41:00;;;;;;;5.83;4.23;;;11.60;99.90;;;;;;4952560;28;21426;-71
2022/12/21 14:43:28;;;;;;;4.00;3.37;;;11.60;99.90;;;;;;4951153;28;20453;-69
2022/12/21 14:45:55;;;;;;;4.33;3.50;;;11.60;99.90;;;;;;4950271;29;20449;-70
2022/12/21 14:48:47;;;;;;;3.30;3.00;;;11.70;99.90;;;;;;4950817;28;21262;-69
2022/12/21 14:51:49;;;;;;;4.40;2.50;;;11.70;99.90;;;;;;4950695;28;21209;-70
2022/12/21 14:54:24;;;;;;;3.47;2.40;;;11.70;99.90;;;;;;4951951;28;20437;-70
2022/12/21 14:57:26;;;;;;;2.93;2.23;;;11.70;99.90;;;;;;4950943;29;20463;-70
2022/12/21 15:00:05;;;;;;;2.77;1.80;;;11.60;99.90;;;;;;4950347;28;20942;-70
2022/12/21 15:02:39;;;;;;;2.40;2.20;;;11.70;99.90;;;;;;4953176;28;20532;-70
2022/12/21 15:05:20;;;;;;;5.10;2.50;;;11.70;99.90;;;;;;4952928;29;20453;-70
2022/12/21 15:07:50;;;;;;;2.30;2.10;;;11.60;99.90;;;;;;4953046;29;20452;-70
2022/12/21 15:10:22;;;;;;;3.83;2.23;;;11.70;99.90;;;;;;4952363;28;20505;-70
2022/12/21 15:12:51;;;;;;;3.67;2.77;;;11.70;99.90;;;;;;4952977;29;20438;-70
2022/12/21 15:15:28;;;;;;;2.60;2.30;;;11.70;99.90;;;;;;4953019;29;20457;-70
2022/12/21 15:17:58;;;;;;;3.43;2.43;;;11.70;99.90;;;;;;4952997;29;20455;-70
2022/12/21 15:20:42;;;;;;;2.90;2.43;;;11.70;99.90;;;;;;4953036;28;20450;-70
2022/12/21 15:23:17;;;;;;;6.30;2.53;;;11.70;99.90;;;;;;4953188;29;20456;-70
2022/12/21 15:25:44;;;;;;;4.60;3.13;;;11.70;99.90;;;;;;4953423;29;20457;-70
2022/12/21 15:28:18;;;;;;;5.20;3.30;;;11.70;99.90;;;;;;4953198;29;21138;-70
2022/12/21 15:30:48;;;;;;;5.43;3.20;;;11.60;99.90;;;;;;4953176;28;20497;-71
2022/12/21 15:33:19;;;;;;;5.33;2.83;;;11.60;99.90;;;;;;4951550;28;20464;-70
2022/12/21 15:35:51;;;;;;;4.03;2.67;;;11.60;99.90;;;;;;4950571;29;20457;-70
2022/12/21 15:38:23;;;;;;;3.50;2.70;;;11.60;99.90;;;;;;4948969;29;20442;-71
2022/12/21 15:40:56;;;;;;;3.43;2.43;;;11.60;99.90;;;;;;4949201;28;20501;-71
2022/12/21 15:43:30;;;;;;;6.03;2.73;;;11.60;99.90;;;;;;4948708;29;20463;-71
2022/12/21 15:46:03;;;;;;;3.00;2.00;;;11.60;99.90;;;;;;4949444;29;20457;-69
2022/12/21 15:48:36;;;;;;;4.10;2.80;;;11.60;99.90;;;;;;4949063;29;20462;-69
2022/12/21 15:51:12;;;;;;;3.60;2.93;;;11.50;99.90;;;;;;4948986;28;20883;-69
2022/12/21 15:53:39;;;;;;;3.30;2.23;;;11.50;99.90;;;;;;4949107;29;20449;-69
2022/12/21 15:56:12;;;;;;;7.70;3.20;;;11.50;99.90;;;;;;4947780;28;20457;-69
2022/12/21 15:58:41;;;;;;;2.77;2.57;;;11.50;99.90;;;;;;4949156;29;20549;-69
2022/12/21 16:01:14;;;;;;;4.07;2.60;;;11.50;99.90;;;;;;4948699;28;20497;-69
2022/12/21 16:03:42;;;;;;;2.80;2.60;;;11.50;99.90;;;;;;4948063;29;20457;-69
2022/12/21 16:06:14;;;;;;;4.67;2.70;;;11.50;99.90;;;;;;4947369;29;20465;-69
2022/12/21 16:08:44;;;;;;;2.87;2.50;;;11.50;99.90;;;;;;4948278;29;20440;-69
2022/12/21 16:11:26;;;;;;;3.37;3.07;;;11.50;99.90;;;;;;4948080;28;20802;-69
2022/12/21 16:14:02;;;;;;;3.50;3.20;;;11.40;99.90;;;;;;4948248;28;20461;-69
2022/12/21 16:16:30;;;;;;;4.23;3.07;;;11.40;99.90;;;;;;4947628;29;20460;-69
2022/12/21 16:18:58;;;;;;;3.10;2.77;;;11.40;99.90;;;;;;4948134;29;20462;-69
2022/12/21 16:21:32;;;;;;;5.50;4.80;;;11.50;99.90;;;;;;4948009;28;20572;-69
2022/12/21 16:24:03;;;;;;;16.30;10.43;;;11.50;99.90;;;;;;4948819;29;20461;-69
2022/12/21 16:26:32;;;;;;;4.37;3.97;;;11.50;99.90;;;;;;4949358;29;20460;-69
2022/12/21 16:29:05;;;;;;;3.90;3.50;;;11.50;99.90;;;;;;4948797;29;20465;-70
2022/12/21 16:31:43;;;;;;;5.17;3.20;;;11.50;99.90;;;;;;4946993;28;20473;-70
2022/12/21 16:34:20;;;;;;;3.53;3.17;;;11.50;99.90;;;;;;4947759;29;20531;-70
2022/12/21 16:36:48;;;;;;;4.10;3.03;;;11.50;99.90;;;;;;4947431;29;20437;-70
2022/12/21 16:39:15;;;;;;;3.57;3.13;;;11.50;99.90;;;;;;4948221;29;20462;-69
2022/12/21 16:41:42;;;;;;;4.17;3.00;;;11.50;99.90;;;;;;4947906;28;20483;-70
2022/12/21 16:44:37;;;;;;;4.60;3.43;;;11.50;99.90;;;;;;4948219;29;20453;-70
2022/12/21 16:47:16;;;;;;;5.83;3.80;;;11.50;99.90;;;;;;4948337;28;20444;-70
2022/12/21 16:49:44;;;;;;;5.40;3.77;;;11.40;99.90;;;;;;4947812;29;20881;-70
2022/12/21 16:52:45;;;;;;;4.75;4.00;;;11.40;99.90;;;;;;4946919;28;20458;-70
2022/12/21 16:55:26;;;;;;;5.90;4.60;;;11.50;99.90;;;;;;4947793;28;20210;-70
2022/12/21 16:58:00;;;;;;;5.83;3.80;;;11.60;99.90;;;;;;4947614;29;20430;-70
2022/12/21 17:00:32;;;;;;;6.20;4.13;;;11.60;99.90;;;;;;4949000;28;20458;-70
2022/12/21 17:03:02;;;;;;;4.43;4.03;;;11.60;99.90;;;;;;4947948;29;20513;-70
2022/12/21 17:05:34;;;;;;;4.43;4.03;;;11.50;99.90;;;;;;4946232;29;20849;-70
2022/12/21 17:08:12;;;;;;;5.43;3.75;;;11.50;99.90;;;;;;4953260;29;20562;-70
2022/12/21 17:10:39;;;;;;;5.17;3.33;;;11.50;99.90;;;;;;4941753;29;20237;-70
2022/12/21 17:13:08;;;;;;;4.87;3.93;;;11.50;99.90;;;;;;4935797;29;20469;-71
2022/12/21 17:15:40;;;;;;;5.63;4.03;;;11.50;99.90;;;;;;4935805;29;20446;-70
2022/12/21 17:18:54;;;;;;;4.70;3.53;;;11.50;99.90;;;;;;4934997;29;20454;-70
2022/12/21 17:21:33;;;;;;;7.33;4.10;;;11.50;99.90;;;;;;4890088;29;20486;-70
2022/12/21 17:24:03;;;;;;;7.77;4.77;;;11.40;99.90;;;;;;4934827;29;20438;-70
2022/12/21 17:26:33;;;;;;;7.17;5.20;;;11.40;99.90;;;;;;4934878;29;20446;-70
2022/12/21 17:29:00;;;;;;;7.30;5.60;;;11.30;99.90;;;;;;4935280;29;20810;-70
2022/12/21 17:31:28;;;;;;;7.80;4.70;;;11.20;99.90;;;;;;4934903;29;20589;-70
2022/12/21 17:33:55;;;;;;;5.17;4.07;;;11.20;99.90;;;;;;4934938;29;20512;-70
2022/12/21 17:36:22;;;;;;;5.50;4.27;;;11.20;99.90;;;;;;4934595;29;20462;-70
2022/12/21 17:38:50;;;;;;;4.00;3.30;;;11.20;99.90;;;;;;4935472;29;20462;-70
2022/12/21 17:41:19;;;;;;;5.90;3.70;;;11.20;99.90;;;;;;4934996;29;21358;-70
2022/12/21 17:43:46;;;;;;;3.80;3.07;;;11.10;99.90;;;;;;4935178;29;20461;-70
2022/12/21 17:46:16;;;;;;;3.83;3.20;;;11.10;99.90;;;;;;4934559;29;20458;-70
2022/12/21 17:48:46;;;;;;;3.60;3.10;;;11.00;99.90;;;;;;4934884;29;20462;-70
2022/12/21 17:51:16;;;;;;;3.10;2.87;;;11.00;99.90;;;;;;4935499;29;20505;-70
2022/12/21 17:53:43;;;;;;;4.30;3.90;;;11.00;99.90;;;;;;4935715;29;20466;-70
2022/12/21 17:56:15;;;;;;;12.73;9.30;;;10.90;99.90;;;;;;4935944;29;20466;-70
2022/12/21 17:58:43;;;;;;;10.17;7.30;;;10.90;99.90;;;;;;4935634;29;20907;-70
2022/12/21 18:01:12;;;;;;;9.97;8.97;;;10.90;99.90;;;;;;4942807;28;20488;-70
2022/12/21 18:03:40;;;;;;;5.10;4.60;;;10.90;99.90;;;;;;4955049;29;20456;-70
2022/12/21 18:06:10;;;;;;;4.90;3.57;;;10.90;99.90;;;;;;4953997;28;20487;-70
2022/12/21 18:08:37;;;;;;;8.60;6.67;;;10.90;99.90;;;;;;4955152;29;20925;-70
2022/12/21 18:11:04;;;;;;;7.77;6.70;;;10.90;99.90;;;;;;4954374;28;20496;-70
2022/12/21 18:13:32;;;;;;;8.43;7.00;;;10.90;99.90;;;;;;4954456;28;20457;-70
2022/12/21 18:16:03;;;;;;;5.93;5.13;;;10.90;99.90;;;;;;4954292;29;20892;-70